createdAt,value
2022-12-05T00:01:12.607Z,88.72
2022-12-05T00:03:39.033Z,88.90
2022-12-05T00:06:05.828Z,88.93
2022-12-05T00:08:32.289Z,88.52
2022-12-05T00:10:59.142Z,88.45
2022-12-05T00:13:25.641Z,88.86
2022-12-05T00:15:51.992Z,88.74
2022-12-05T00:18:18.401Z,89.01
2022-12-05T00:20:49.463Z,88.58
2022-12-05T00:23:15.804Z,88.66
2022-12-05T00:25:42.184Z,88.72
2022-12-05T00:28:08.636Z,88.73
2022-12-05T00:30:35.116Z,88.64
2022-12-05T00:33:01.633Z,88.69
2022-12-05T00:35:28.021Z,88.75
2022-12-05T00:37:54.905Z,88.79
2022-12-05T00:40:21.304Z,88.93
2022-12-05T00:42:52.159Z,88.61
2022-12-05T00:45:18.959Z,88.55
2022-12-05T00:47:45.397Z,88.65
2022-12-05T00:50:11.944Z,88.60
2022-12-05T00:52:38.378Z,89.15
2022-12-05T00:55:05.135Z,89.14
2022-12-05T00:57:32.106Z,88.70
2022-12-05T00:59:58.853Z,88.73
2022-12-05T01:02:25.635Z,88.79
2022-12-05T01:04:52.004Z,88.82
2022-12-05T01:07:18.479Z,89.39
2022-12-05T01:09:44.883Z,89.19
2022-12-05T01:12:11.233Z,89.95
2022-12-05T01:14:37.786Z,89.84
2022-12-05T01:17:04.445Z,90.14
2022-12-05T01:19:32.521Z,89.93
2022-12-05T01:21:59.787Z,89.91
2022-12-05T01:24:27.798Z,89.82
2022-12-05T01:26:54.455Z,89.77
2022-12-05T01:29:22.914Z,90.12
2022-12-05T01:31:49.480Z,89.90
2022-12-05T01:34:17.605Z,90.20
2022-12-05T01:36:44.699Z,90.77
2022-12-05T01:39:12.731Z,90.17
2022-12-05T01:41:44.207Z,90.48
2022-12-05T01:44:13.442Z,90.48
2022-12-05T01:46:45.348Z,90.72
2022-12-05T01:49:16.098Z,90.76
2022-12-05T01:51:48.801Z,90.78
2022-12-05T01:54:17.225Z,91.03
2022-12-05T01:56:48.759Z,91.05
2022-12-05T01:59:18.530Z,90.88
2022-12-05T02:01:45.148Z,91.39
2022-12-05T02:04:13.148Z,91.11
2022-12-05T02:06:39.766Z,91.66
2022-12-05T02:09:06.535Z,91.62
2022-12-05T02:11:34.083Z,91.15
2022-12-05T02:14:22.875Z,91.34
2022-12-05T02:17:21.717Z,91.83
2022-12-05T02:20:10.159Z,91.71
2022-12-05T02:22:58.402Z,91.95
2022-12-05T02:25:42.035Z,91.47
2022-12-05T02:28:30.568Z,91.60
2022-12-05T02:31:10.830Z,92.23
2022-12-05T02:34:15.591Z,92.10
2022-12-05T02:37:01.406Z,92.04
2022-12-05T02:39:50.790Z,92.56
2022-12-05T02:42:37.023Z,92.16
2022-12-05T02:45:09.860Z,92.25
2022-12-05T02:47:45.738Z,92.05
2022-12-05T02:50:16.727Z,92.28
2022-12-05T02:52:45.801Z,92.85
2022-12-05T02:55:15.344Z,92.27
2022-12-05T02:57:45.378Z,92.71
2022-12-05T03:00:12.276Z,92.40
2022-12-05T03:02:40.296Z,92.29
2022-12-05T03:05:12.839Z,92.40
2022-12-05T03:07:43.841Z,92.92
2022-12-05T03:10:12.205Z,92.55
2022-12-05T03:12:44.360Z,92.75
2022-12-05T03:15:14.534Z,92.44
2022-12-05T03:17:48.098Z,92.64
2022-12-05T03:20:29.992Z,92.46
2022-12-05T03:23:05.995Z,92.69
2022-12-05T03:25:44.208Z,92.43
2022-12-05T03:28:20.794Z,92.76
2022-12-05T03:30:48.180Z,92.86
2022-12-05T03:33:20.189Z,92.19
2022-12-05T03:36:08.116Z,92.33
2022-12-05T03:38:50.675Z,92.20
2022-12-05T03:41:34.373Z,92.64
2022-12-05T03:44:09.357Z,92.48
2022-12-05T03:46:48.523Z,92.11
2022-12-05T03:49:33.488Z,92.18
2022-12-05T03:52:06.686Z,92.33
2022-12-05T03:54:37.956Z,92.62
2022-12-05T03:57:21.124Z,92.30
2022-12-05T03:59:54.511Z,92.75
2022-12-05T04:02:29.832Z,92.45
2022-12-05T04:05:11.843Z,92.44
2022-12-05T04:07:40.420Z,92.83
2022-12-05T04:10:13.895Z,92.89
2022-12-05T04:12:44.857Z,92.25
2022-12-05T04:15:17.198Z,92.48
2022-12-05T04:17:54.080Z,92.29
2022-12-05T04:20:47.718Z,92.52
2022-12-05T04:23:14.395Z,92.80
2022-12-05T04:26:22.370Z,93.05
2022-12-05T04:29:08.914Z,92.43
2022-12-05T04:31:42.222Z,92.62
2022-12-05T04:34:12.627Z,92.47
2022-12-05T04:36:50.278Z,92.49
2022-12-05T04:39:29.226Z,92.58
2022-12-05T04:42:06.333Z,92.97
2022-12-05T04:44:38.175Z,93.11
2022-12-05T04:47:08.502Z,93.25
2022-12-05T04:49:36.792Z,92.75
2022-12-05T04:52:07.978Z,93.21
2022-12-05T04:54:52.411Z,93.73
2022-12-05T04:57:30.915Z,93.39
2022-12-05T04:59:57.613Z,93.73
2022-12-05T05:02:41.474Z,93.24
2022-12-05T05:05:13.906Z,93.34
2022-12-05T05:07:49.812Z,93.40
2022-12-05T05:10:21.182Z,93.28
2022-12-05T05:12:47.618Z,93.81
2022-12-05T05:15:13.963Z,93.61
2022-12-05T05:17:40.281Z,93.88
2022-12-05T05:20:26.687Z,93.46
2022-12-05T05:22:54.976Z,93.77
2022-12-05T05:25:22.191Z,93.76
2022-12-05T05:27:50.781Z,94.17
2022-12-05T05:30:19.215Z,94.04
2022-12-05T05:32:46.232Z,93.64
2022-12-05T05:35:13.359Z,94.23
2022-12-05T05:37:40.235Z,94.08
2022-12-05T05:40:11.060Z,93.97
2022-12-05T05:42:42.997Z,93.94
2022-12-05T05:45:10.547Z,94.42
2022-12-05T05:47:36.879Z,93.89
2022-12-05T05:50:04.562Z,94.17
2022-12-05T05:52:33.099Z,94.13
2022-12-05T05:54:59.495Z,93.85
2022-12-05T05:57:25.860Z,94.44
2022-12-05T05:59:52.276Z,94.24
2022-12-05T06:02:18.674Z,94.15
2022-12-05T06:04:45.162Z,94.62
2022-12-05T06:07:11.567Z,94.25
2022-12-05T06:09:38.014Z,94.85
2022-12-05T06:12:04.698Z,94.31
2022-12-05T06:14:31.251Z,94.25
2022-12-05T06:16:57.765Z,94.32
2022-12-05T06:19:24.224Z,94.67
2022-12-05T06:21:50.789Z,94.27
2022-12-05T06:24:17.625Z,94.66
2022-12-05T06:26:46.947Z,94.42
2022-12-05T06:29:13.283Z,94.77
2022-12-05T06:31:41.642Z,94.49
2022-12-05T06:34:08.127Z,94.43
2022-12-05T06:36:34.492Z,94.52
2022-12-05T06:39:01.074Z,94.65
2022-12-05T06:41:28.040Z,94.63
2022-12-05T06:44:01.378Z,95.12
2022-12-05T06:46:28.592Z,94.61
2022-12-05T06:48:57.087Z,94.58
2022-12-05T06:51:24.171Z,95.10
2022-12-05T06:53:50.557Z,94.87
2022-12-05T06:56:19.580Z,94.52
2022-12-05T06:58:49.598Z,94.48
2022-12-05T07:01:37.943Z,95.03
2022-12-05T07:04:15.410Z,94.80
2022-12-05T07:06:48.676Z,95.00
2022-12-05T07:09:22.733Z,94.45
2022-12-05T07:11:50.302Z,94.72
2022-12-05T07:14:38.788Z,94.96
2022-12-05T07:17:04.484Z,94.67
2022-12-05T07:19:30.885Z,94.43
2022-12-05T07:21:57.201Z,94.69
2022-12-05T07:24:23.552Z,94.36
2022-12-05T07:26:49.913Z,95.02
2022-12-05T07:29:16.251Z,94.42
2022-12-05T07:31:42.674Z,94.51
2022-12-05T07:34:09.154Z,94.82
2022-12-05T07:36:35.959Z,94.22
2022-12-05T07:39:02.565Z,94.63
2022-12-05T07:41:31.559Z,94.96
2022-12-05T07:43:59.734Z,95.06
2022-12-05T07:46:28.457Z,94.45
2022-12-05T07:48:55.142Z,95.08
2022-12-05T07:51:21.999Z,94.97
2022-12-05T07:53:48.683Z,95.17
2022-12-05T07:56:17.251Z,95.17
2022-12-05T07:58:45.177Z,94.79
2022-12-05T08:01:24.134Z,95.26
2022-12-05T08:03:53.103Z,94.54
2022-12-05T08:06:22.796Z,94.36
2022-12-05T08:08:52.599Z,94.87
2022-12-05T08:11:24.868Z,94.52
2022-12-05T08:13:52.325Z,95.28
2022-12-05T08:16:21.341Z,94.97
2022-12-05T08:18:48.010Z,94.95
2022-12-05T08:21:17.286Z,94.81
2022-12-05T08:23:44.598Z,94.72
2022-12-05T08:26:16.541Z,94.40
2022-12-05T08:28:44.024Z,94.67
2022-12-05T08:31:13.478Z,94.27
2022-12-05T08:33:40.803Z,94.46
2022-12-05T08:36:09.695Z,94.67
2022-12-05T08:38:36.434Z,94.74
2022-12-05T08:41:04.808Z,94.49
2022-12-05T08:43:32.194Z,94.87
2022-12-05T08:45:59.268Z,94.93
2022-12-05T08:48:29.395Z,94.33
2022-12-05T08:50:56.803Z,94.58
2022-12-05T08:53:23.114Z,94.50
2022-12-05T08:55:49.456Z,94.66
2022-12-05T08:58:16.290Z,94.42
2022-12-05T09:00:43.522Z,94.54
2022-12-05T09:03:11.920Z,94.67
2022-12-05T09:05:38.635Z,94.16
2022-12-05T09:08:05.280Z,94.24
2022-12-05T09:10:32.966Z,93.87
2022-12-05T09:12:59.659Z,94.35
2022-12-05T09:15:26.069Z,94.20
2022-12-05T09:17:52.479Z,94.38
2022-12-05T09:20:18.893Z,94.35
2022-12-05T09:22:45.237Z,93.93
2022-12-05T09:25:11.775Z,94.28
2022-12-05T09:27:38.230Z,94.27
2022-12-05T09:30:05.995Z,93.99
2022-12-05T09:32:32.329Z,94.14
2022-12-05T09:34:58.946Z,93.82
2022-12-05T09:37:40.681Z,93.74
2022-12-05T09:40:14.756Z,93.65
2022-12-05T09:43:04.492Z,93.92
2022-12-05T09:45:45.926Z,93.83
2022-12-05T09:48:19.592Z,93.85
2022-12-05T09:51:01.045Z,94.09
2022-12-05T09:53:33.259Z,94.02
2022-12-05T09:56:12.204Z,93.84
2022-12-05T09:59:05.667Z,94.02
2022-12-05T10:01:57.752Z,93.50
2022-12-05T10:05:00.604Z,93.29
2022-12-05T10:07:48.055Z,93.38
2022-12-05T10:10:27.390Z,93.73
2022-12-05T10:13:27.602Z,93.70
2022-12-05T10:15:59.326Z,93.48
2022-12-05T10:18:41.148Z,93.45
2022-12-05T10:21:21.603Z,93.31
2022-12-05T10:24:11.023Z,93.49
2022-12-05T10:26:44.560Z,93.45
2022-12-05T10:29:14.020Z,93.31
2022-12-05T10:31:42.288Z,93.42
2022-12-05T10:34:18.431Z,92.95
2022-12-05T10:36:55.294Z,93.48
2022-12-05T10:39:21.768Z,93.05
2022-12-05T10:41:48.305Z,93.64
2022-12-05T10:44:14.767Z,93.31
2022-12-05T10:46:41.336Z,93.41
2022-12-05T10:49:12.378Z,93.70
2022-12-05T10:51:39.344Z,93.83
2022-12-05T10:54:18.134Z,93.66
2022-12-05T10:56:47.457Z,93.76
2022-12-05T10:59:20.469Z,93.84
2022-12-05T11:01:50.839Z,93.71
2022-12-05T11:04:22.021Z,93.87
2022-12-05T11:07:05.045Z,93.51
2022-12-05T11:09:34.238Z,94.04
2022-12-05T11:12:17.108Z,94.26
2022-12-05T11:15:06.211Z,93.96
2022-12-05T11:17:37.842Z,94.44
2022-12-05T11:20:24.190Z,94.50
2022-12-05T11:22:56.122Z,94.60
2022-12-05T11:25:30.858Z,94.46
2022-12-05T11:28:01.630Z,94.44
2022-12-05T11:30:29.527Z,94.63
2022-12-05T11:33:33.499Z,94.68
2022-12-05T11:36:22.307Z,94.43
2022-12-05T11:38:49.156Z,94.64
2022-12-05T11:41:44.776Z,94.51
2022-12-05T11:44:28.885Z,95.12
2022-12-05T11:47:33.868Z,94.72
2022-12-05T11:50:24.887Z,94.58
2022-12-05T11:53:00.099Z,94.64
2022-12-05T11:55:33.267Z,94.57
2022-12-05T11:58:21.117Z,94.89
2022-12-05T12:01:11.150Z,94.54
2022-12-05T12:03:58.435Z,94.65
2022-12-05T12:06:33.164Z,95.09
2022-12-05T12:09:17.626Z,94.61
2022-12-05T12:12:19.305Z,94.89
2022-12-05T12:15:21.051Z,94.78
2022-12-05T12:17:59.973Z,94.70
2022-12-05T12:20:40.699Z,94.61
2022-12-05T12:23:31.937Z,94.47
2022-12-05T12:26:29.207Z,94.81
2022-12-05T12:29:10.706Z,94.65
2022-12-05T12:31:54.920Z,94.86
2022-12-05T12:34:39.508Z,94.90
2022-12-05T12:37:14.107Z,94.77
2022-12-05T12:39:59.775Z,94.86
2022-12-05T12:42:39.851Z,94.35
2022-12-05T12:45:17.852Z,94.68
2022-12-05T12:48:18.462Z,94.39
2022-12-05T12:50:47.063Z,94.34
2022-12-05T12:53:16.407Z,94.44
2022-12-05T12:56:01.102Z,94.76
2022-12-05T12:58:46.223Z,94.35
2022-12-05T13:01:32.875Z,94.68
2022-12-05T13:04:06.686Z,94.45
2022-12-05T13:06:43.989Z,94.71
2022-12-05T13:09:51.851Z,94.29
2022-12-05T13:12:25.710Z,94.42
2022-12-05T13:14:58.369Z,94.59
2022-12-05T13:17:25.191Z,94.37
2022-12-05T13:19:53.291Z,94.73
2022-12-05T13:22:23.281Z,94.21
2022-12-05T13:24:54.130Z,94.66
2022-12-05T13:27:24.302Z,94.15
2022-12-05T13:29:58.545Z,94.71
2022-12-05T13:32:37.275Z,94.46
2022-12-05T13:35:06.654Z,94.63
2022-12-05T13:37:53.136Z,94.76
2022-12-05T13:40:45.462Z,94.41
2022-12-05T13:43:16.178Z,94.62
2022-12-05T13:45:54.689Z,94.51
2022-12-05T13:48:25.421Z,94.84
2022-12-05T13:51:20.498Z,94.79
2022-12-05T13:54:10.019Z,94.81
2022-12-05T13:56:49.620Z,94.84
2022-12-05T13:59:55.165Z,94.65
2022-12-05T14:02:43.391Z,94.35
2022-12-05T14:05:35.892Z,94.53
2022-12-05T14:08:35.749Z,94.54
2022-12-05T14:11:02.421Z,94.58
2022-12-05T14:13:30.135Z,94.26
2022-12-05T14:16:25.257Z,94.41
2022-12-05T14:19:12.082Z,94.71
2022-12-05T14:22:11.412Z,94.48
2022-12-05T14:24:43.643Z,94.54
2022-12-05T14:27:27.117Z,94.62
2022-12-05T14:30:14.992Z,94.52
2022-12-05T14:32:42.548Z,94.30
2022-12-05T14:35:20.819Z,94.67
2022-12-05T14:37:53.645Z,94.77
2022-12-05T14:40:36.368Z,94.33
2022-12-05T14:43:25.672Z,94.95
2022-12-05T14:45:52.011Z,94.65
2022-12-05T14:48:49.103Z,95.18
2022-12-05T14:51:30.796Z,94.76
2022-12-05T14:54:05.822Z,95.03
2022-12-05T14:56:40.173Z,95.17
2022-12-05T14:59:28.099Z,94.86
2022-12-05T15:01:58.255Z,94.97
2022-12-05T15:04:24.662Z,95.22
2022-12-05T15:07:05.470Z,94.66
2022-12-05T15:09:54.295Z,95.15
2022-12-05T15:12:32.218Z,95.14
2022-12-05T15:15:29.516Z,95.14
2022-12-05T15:18:19.936Z,95.06
2022-12-05T15:20:50.150Z,94.89
2022-12-05T15:24:01.386Z,95.22
2022-12-05T15:26:46.132Z,95.37
2022-12-05T15:29:28.396Z,95.42
2022-12-05T15:32:02.165Z,95.34
2022-12-05T15:34:35.565Z,94.90
2022-12-05T15:37:24.880Z,95.24
2022-12-05T15:39:54.111Z,95.05
2022-12-05T15:42:29.519Z,94.75
2022-12-05T15:45:14.821Z,94.77
2022-12-05T15:47:42.854Z,95.09
2022-12-05T15:50:19.536Z,94.71
2022-12-05T15:52:58.053Z,94.88
2022-12-05T15:55:30.742Z,95.01
2022-12-05T15:58:11.175Z,94.63
2022-12-05T16:00:42.351Z,95.12
2022-12-05T16:03:24.219Z,94.52
2022-12-05T16:06:04.651Z,95.29
2022-12-05T16:08:40.599Z,94.53
2022-12-05T16:11:09.089Z,94.94
2022-12-05T16:13:35.896Z,94.46
2022-12-05T16:16:05.231Z,94.57
2022-12-05T16:18:32.671Z,94.83
2022-12-05T16:20:59.099Z,94.84
2022-12-05T16:23:30.800Z,94.65
2022-12-05T16:26:15.245Z,94.59
2022-12-05T16:28:41.669Z,95.03
2022-12-05T16:31:08.268Z,94.62
2022-12-05T16:33:38.861Z,94.96
2022-12-05T16:36:12.665Z,94.62
2022-12-05T16:38:43.371Z,95.01
2022-12-05T16:41:17.043Z,94.45
2022-12-05T16:43:45.832Z,94.73
2022-12-05T16:46:15.238Z,94.73
2022-12-05T16:48:47.475Z,95.02
2022-12-05T16:51:14.018Z,94.75
2022-12-05T16:53:43.040Z,94.76
2022-12-05T16:56:22.464Z,95.06
2022-12-05T16:58:48.934Z,94.81
2022-12-05T17:01:21.441Z,94.69
2022-12-05T17:03:48.375Z,94.61
2022-12-05T17:06:15.662Z,94.91
2022-12-05T17:08:42.710Z,94.83
2022-12-05T17:11:26.036Z,95.06
2022-12-05T17:13:54.709Z,94.70
2022-12-05T17:16:21.613Z,94.64
2022-12-05T17:18:48.099Z,94.37
2022-12-05T17:21:17.675Z,94.56
2022-12-05T17:23:47.821Z,94.74
2022-12-05T17:26:17.180Z,94.46
2022-12-05T17:28:43.731Z,94.66
2022-12-05T17:31:13.403Z,94.71
2022-12-05T17:33:39.906Z,94.52
2022-12-05T17:36:06.412Z,94.34
2022-12-05T17:38:32.725Z,94.56
2022-12-05T17:41:02.578Z,94.49
2022-12-05T17:43:32.317Z,94.60
2022-12-05T17:46:03.142Z,94.66
2022-12-05T17:48:29.523Z,94.45
2022-12-05T17:50:58.758Z,94.77
2022-12-05T17:53:25.083Z,94.26
2022-12-05T17:55:52.087Z,94.15
2022-12-05T17:58:18.418Z,94.29
2022-12-05T18:00:46.488Z,94.15
2022-12-05T18:03:16.073Z,94.48
2022-12-05T18:05:42.915Z,94.39
2022-12-05T18:08:09.780Z,94.54
2022-12-05T18:10:36.343Z,94.22
2022-12-05T18:13:03.007Z,94.41
2022-12-05T18:15:29.323Z,94.75
2022-12-05T18:17:55.698Z,94.61
2022-12-05T18:20:22.088Z,94.22
2022-12-05T18:22:48.741Z,94.22
2022-12-05T18:25:15.076Z,94.54
2022-12-05T18:27:41.454Z,94.18
2022-12-05T18:30:08.412Z,94.54
2022-12-05T18:32:34.937Z,94.31
2022-12-05T18:35:04.144Z,94.41
2022-12-05T18:37:36.480Z,94.74
2022-12-05T18:40:03.979Z,94.71
2022-12-05T18:42:31.042Z,94.46
2022-12-05T18:44:57.709Z,94.84
2022-12-05T18:47:25.235Z,94.18
2022-12-05T18:49:51.546Z,94.48
2022-12-05T18:52:18.074Z,94.78
2022-12-05T18:54:45.971Z,94.42
2022-12-05T18:57:17.163Z,94.71
2022-12-05T18:59:44.584Z,94.35
2022-12-05T19:02:11.608Z,94.34
2022-12-05T19:04:38.095Z,94.19
2022-12-05T19:07:04.462Z,94.21
2022-12-05T19:09:32.243Z,94.20
2022-12-05T19:11:59.459Z,94.68
2022-12-05T19:14:27.973Z,94.22
2022-12-05T19:16:59.983Z,94.10
2022-12-05T19:19:27.094Z,93.97
2022-12-05T19:21:53.585Z,94.07
2022-12-05T19:24:19.994Z,94.29
2022-12-05T19:26:50.329Z,93.85
2022-12-05T19:29:17.288Z,93.84
2022-12-05T19:31:44.428Z,94.22
2022-12-05T19:34:11.567Z,94.15
2022-12-05T19:36:41.142Z,93.92
2022-12-05T19:39:16.896Z,94.06
2022-12-05T19:41:43.501Z,94.00
2022-12-05T19:44:10.664Z,94.49
2022-12-05T19:46:37.286Z,94.40
2022-12-05T19:49:06.330Z,94.11
2022-12-05T19:51:33.584Z,94.17
2022-12-05T19:54:01.049Z,94.22
2022-12-05T19:56:31.383Z,94.21
2022-12-05T19:58:59.406Z,94.03
2022-12-05T20:01:31.261Z,94.16
2022-12-05T20:04:09.590Z,94.21
2022-12-05T20:06:42.415Z,93.91
2022-12-05T20:09:11.281Z,94.21
2022-12-05T20:11:39.642Z,94.15
2022-12-05T20:14:06.603Z,94.40
2022-12-05T20:16:33.802Z,94.50
2022-12-05T20:19:00.270Z,94.33
2022-12-05T20:21:29.733Z,94.36
2022-12-05T20:23:56.591Z,94.11
2022-12-05T20:26:26.493Z,94.55
2022-12-05T20:28:52.967Z,94.54
2022-12-05T20:31:24.743Z,94.16
2022-12-05T20:33:52.895Z,94.08
2022-12-05T20:36:22.064Z,94.22
2022-12-05T20:38:49.187Z,94.32
2022-12-05T20:41:17.993Z,94.25
2022-12-05T20:43:47.179Z,94.17
2022-12-05T20:46:19.229Z,94.04
2022-12-05T20:48:47.428Z,94.07
2022-12-05T20:51:16.145Z,94.57
2022-12-05T20:53:43.912Z,94.12
2022-12-05T20:56:25.658Z,94.25
2022-12-05T20:58:55.791Z,94.55
2022-12-05T21:01:25.465Z,94.22
2022-12-05T21:03:52.910Z,94.27
2022-12-05T21:06:23.057Z,94.43
2022-12-05T21:08:50.680Z,94.29
2022-12-05T21:11:17.542Z,94.74
2022-12-05T21:13:43.974Z,94.37
2022-12-05T21:16:13.357Z,94.17
2022-12-05T21:18:40.508Z,94.34
2022-12-05T21:21:11.031Z,94.60
2022-12-05T21:23:37.350Z,94.26
2022-12-05T21:26:07.107Z,94.71
2022-12-05T21:28:34.724Z,94.47
2022-12-05T21:31:13.093Z,95.10
2022-12-05T21:33:40.456Z,94.94
2022-12-05T21:36:08.351Z,94.48
2022-12-05T21:38:35.252Z,94.66
2022-12-05T21:41:03.948Z,94.84
2022-12-05T21:43:30.952Z,94.85
2022-12-05T21:45:57.516Z,94.88
2022-12-05T21:48:24.906Z,94.99
2022-12-05T21:50:52.234Z,95.26
2022-12-05T21:53:19.703Z,94.97
2022-12-05T21:55:46.487Z,95.13
2022-12-05T21:58:13.412Z,94.92
2022-12-05T22:00:39.888Z,94.62
2022-12-05T22:03:07.076Z,95.10
2022-12-05T22:05:33.565Z,94.73
2022-12-05T22:08:03.582Z,94.78
2022-12-05T22:10:34.385Z,94.94
2022-12-05T22:13:00.710Z,95.05
2022-12-05T22:15:27.144Z,95.01
2022-12-05T22:17:53.470Z,95.18
2022-12-05T22:20:19.892Z,94.84
2022-12-05T22:22:46.291Z,95.04
2022-12-05T22:25:12.643Z,95.18
2022-12-05T22:27:39.007Z,94.89
2022-12-05T22:30:06.246Z,94.87
2022-12-05T22:32:32.576Z,94.64
2022-12-05T22:35:03.506Z,94.59
2022-12-05T22:37:30.470Z,94.89
2022-12-05T22:39:57.067Z,94.68
2022-12-05T22:42:25.461Z,94.92
2022-12-05T22:44:51.791Z,94.37
2022-12-05T22:47:18.172Z,94.64
2022-12-05T22:49:44.503Z,94.05
2022-12-05T22:52:10.908Z,94.74
2022-12-05T22:54:37.211Z,94.35
2022-12-05T22:57:03.561Z,94.22
2022-12-05T22:59:29.864Z,94.12
2022-12-05T23:01:56.224Z,94.03
2022-12-05T23:04:22.797Z,94.40
2022-12-05T23:06:49.272Z,94.36
2022-12-05T23:09:15.748Z,93.88
2022-12-05T23:11:42.218Z,93.81
2022-12-05T23:14:08.605Z,93.94
2022-12-05T23:16:35.404Z,94.19
2022-12-05T23:19:04.507Z,94.04
2022-12-05T23:21:38.743Z,94.01
2022-12-05T23:24:08.379Z,94.00
2022-12-05T23:26:41.117Z,94.13
2022-12-05T23:29:08.038Z,93.68
2022-12-05T23:31:34.567Z,94.02
2022-12-05T23:34:03.443Z,93.68
2022-12-05T23:36:32.071Z,94.13
2022-12-05T23:38:58.666Z,93.80
2022-12-05T23:41:26.140Z,94.44
2022-12-05T23:43:53.406Z,94.43
2022-12-05T23:46:22.930Z,93.82
2022-12-05T23:48:50.391Z,94.18
2022-12-05T23:51:19.547Z,93.94
2022-12-05T23:53:47.551Z,94.46
2022-12-05T23:56:16.933Z,94.59
2022-12-05T23:58:44.475Z,94.33
